Portada
METAR-TAF:

METAR-TAF

Aeroports :

Nouakchott, Mauritània

latitud: 18-18-36N, longitud: 015-58-11W, altitud: 3 m

Observació

L'informe es va fer fa 1 hora i 18 minuts, a les 17:00 UTC
Vent 13 kt del Oest/Nord-Oest
Temperatura 30°C
Humitat 70%
Pressió 1011 hPa
Visibilitat: 6000 m

METAR: GQNO 231700Z 30013KT 6000 NSC 30/24 Q1011 NOSIG

Hora: 18:18 (18:18 UTC)

Pronòstic

L'informe es va fer fa 1 hora i 18 minuts, a les 17:00 UTC
Pronòstic vàlid del 23 a les 18 UTC al 24 a les 24 UTC
Vent 12 kt del Nord-Oest
Visibilitat: 6000 m

TAF: GQNO 231700Z 2318/2424 31012KT 6000 NSC

Observacions i pronòstics meteorològics de més de 4000 aeroports (METAR i TAF).

Les estacions disponibles són els punts grocs i vermells al mapa.

Posi el ratolí al punt desitjat per veure el nom de l'estació.

Feu clic per veure les observacions i els pronòstics meteorològics.

Per canviar el mapa: feu clic els botons verds amb una creu de color negre per apropar; al botó verd amb un guió per allunyar la imatge; o en les fletxes verdes per a mapes adjacents.


METAR-TAF: